Time;durP1;ratioP1;P1;durP2;ratioP2;P2;SDS_P1;SDS_P2;PMS_P1;PMS_P2;Temp;Humidity;BMP_temperature;BMP_pressure;BME280_temperature;BME280_humidity;BME280_pressure;Samples;Min_cycle;Max_cycle;Signal;HPM_P1;HPM_P2
2022/11/27 06:00:25;;;;;;;7.30;6.70;;;4.20;97.20;;;;;;1655670;29;20639;-71
2022/11/27 06:01:17;;;;;;;7.88;7.18;;;4.20;97.20;;;;;;1655822;29;20303;-72
2022/11/27 06:02:09;;;;;;;7.65;6.95;;;4.20;97.20;;;;;;1655858;29;20323;-71
2022/11/27 06:03:00;;;;;;;7.25;6.65;;;4.10;97.20;;;;;;1655759;29;20224;-70
2022/11/27 06:03:52;;;;;;;8.27;7.13;;;4.10;97.20;;;;;;1655953;29;20208;-71
2022/11/27 06:04:42;;;;;;;8.38;6.60;;;4.10;97.20;;;;;;1655748;29;20216;-71
2022/11/27 06:05:38;;;;;;;7.40;6.40;;;4.10;97.20;;;;;;1655926;29;20685;-70
2022/11/27 06:06:28;;;;;;;8.25;7.45;;;4.10;97.20;;;;;;1655914;29;20215;-70
2022/11/27 06:07:20;;;;;;;8.10;7.30;;;4.10;97.20;;;;;;1655585;29;20247;-70
2022/11/27 06:08:11;;;;;;;7.60;6.90;;;4.10;97.20;;;;;;1655875;29;20940;-71
2022/11/27 06:09:03;;;;;;;7.00;6.10;;;4.10;97.20;;;;;;1655250;29;20612;-70
2022/11/27 06:09:54;;;;;;;7.13;6.43;;;4.10;97.20;;;;;;1655737;29;20473;-70
2022/11/27 06:10:46;;;;;;;8.23;6.70;;;4.10;97.20;;;;;;1655731;29;20230;-70
2022/11/27 06:11:36;;;;;;;7.60;6.93;;;4.10;97.20;;;;;;1655831;29;20227;-70
2022/11/27 06:12:30;;;;;;;8.53;6.77;;;4.10;97.20;;;;;;1655935;29;20212;-70
2022/11/27 06:13:21;;;;;;;7.28;6.57;;;4.10;97.20;;;;;;1655865;29;20220;-71
2022/11/27 06:14:13;;;;;;;6.73;6.10;;;4.10;97.20;;;;;;1655657;29;20204;-70
2022/11/27 06:15:04;;;;;;;6.88;6.18;;;4.10;97.20;;;;;;1655847;29;20215;-71
2022/11/27 06:15:57;;;;;;;8.57;6.25;;;4.10;97.20;;;;;;1655766;29;20557;-71
2022/11/27 06:16:49;;;;;;;8.63;6.40;;;4.10;97.20;;;;;;1655611;29;20215;-71
2022/11/27 06:17:39;;;;;;;8.57;6.15;;;4.10;97.20;;;;;;1655693;29;20223;-71
2022/11/27 06:18:31;;;;;;;7.33;6.53;;;4.10;97.20;;;;;;1655394;29;20227;-71
2022/11/27 06:19:22;;;;;;;6.72;6.18;;;4.20;97.20;;;;;;1655647;29;20212;-71
2022/11/27 06:20:14;;;;;;;7.20;6.50;;;4.10;97.20;;;;;;1655655;29;20204;-71
2022/11/27 06:21:06;;;;;;;8.52;7.13;;;4.10;97.20;;;;;;1655739;29;20460;-71
2022/11/27 06:21:58;;;;;;;7.43;6.60;;;4.10;97.20;;;;;;1655864;29;20243;-70
2022/11/27 06:22:49;;;;;;;7.20;6.40;;;4.10;97.20;;;;;;1655682;29;20207;-71
2022/11/27 06:23:42;;;;;;;8.02;6.80;;;4.10;97.20;;;;;;1655738;29;20268;-71
2022/11/27 06:24:33;;;;;;;9.20;6.60;;;4.10;97.20;;;;;;1655839;29;20955;-71
2022/11/27 06:25:26;;;;;;;7.87;7.13;;;4.10;97.20;;;;;;1655727;29;20671;-71
2022/11/27 06:26:18;;;;;;;7.78;6.80;;;4.10;97.20;;;;;;1655701;29;20453;-71
2022/11/27 06:27:10;;;;;;;7.80;7.00;;;4.10;97.20;;;;;;1655590;29;20210;-70
2022/11/27 06:28:01;;;;;;;7.90;7.00;;;4.10;97.20;;;;;;1655653;29;20216;-71
2022/11/27 06:28:54;;;;;;;7.77;6.40;;;4.10;97.20;;;;;;1654852;29;20206;-70
2022/11/27 06:29:45;;;;;;;8.23;6.97;;;4.10;97.20;;;;;;1655579;29;20212;-71
2022/11/27 06:30:37;;;;;;;7.07;6.47;;;4.10;97.20;;;;;;1653509;29;20288;-71
2022/11/27 06:31:31;;;;;;;7.28;6.57;;;4.10;97.20;;;;;;1660464;29;20298;-71
2022/11/27 06:32:23;;;;;;;7.38;6.78;;;4.10;97.20;;;;;;1664081;29;20219;-71
2022/11/27 06:33:13;;;;;;;7.45;6.75;;;4.00;97.20;;;;;;1668233;29;20218;-71
2022/11/27 06:34:05;;;;;;;7.57;6.97;;;4.00;97.20;;;;;;1668196;29;20687;-71
2022/11/27 06:34:56;;;;;;;7.72;7.03;;;4.00;97.20;;;;;;1668284;29;20211;-71
2022/11/27 06:35:48;;;;;;;7.60;6.90;;;4.00;97.20;;;;;;1668285;29;20709;-70
2022/11/27 06:36:39;;;;;;;7.43;6.70;;;4.00;97.20;;;;;;1668088;29;20214;-70
2022/11/27 06:37:31;;;;;;;7.85;7.05;;;4.00;97.20;;;;;;1668311;29;20209;-70
2022/11/27 06:38:23;;;;;;;7.57;6.88;;;4.00;97.20;;;;;;1667819;29;20214;-71
2022/11/27 06:39:14;;;;;;;6.90;6.30;;;3.90;97.20;;;;;;1668305;29;20214;-70
2022/11/27 06:40:07;;;;;;;7.65;6.95;;;3.90;97.20;;;;;;1668095;29;20217;-71
2022/11/27 06:41:02;;;;;;;7.50;6.80;;;3.90;97.20;;;;;;1668151;29;20230;-71
2022/11/27 06:41:53;;;;;;;7.45;6.75;;;3.90;97.20;;;;;;1668262;29;20231;-71
2022/11/27 06:42:45;;;;;;;7.17;6.57;;;3.90;97.20;;;;;;1668290;29;20214;-70
2022/11/27 06:43:36;;;;;;;7.25;6.55;;;3.90;97.20;;;;;;1668269;29;20211;-70
2022/11/27 06:44:28;;;;;;;7.55;6.75;;;3.90;97.20;;;;;;1668143;29;20674;-71
2022/11/27 06:45:18;;;;;;;7.70;6.90;;;3.90;97.20;;;;;;1662722;29;20216;-71
2022/11/27 06:46:14;;;;;;;7.17;6.47;;;3.90;97.20;;;;;;1661948;29;20205;-70
2022/11/27 06:47:07;;;;;;;7.13;6.53;;;3.90;97.20;;;;;;1661777;29;20203;-71
2022/11/27 06:47:57;;;;;;;8.80;8.00;;;3.90;97.20;;;;;;1661897;29;20958;-71
2022/11/27 06:48:52;;;;;;;8.70;7.40;;;3.90;97.20;;;;;;1661425;29;20562;-71
2022/11/27 06:49:43;;;;;;;8.38;7.60;;;3.90;97.20;;;;;;1661880;29;20211;-71
2022/11/27 06:50:35;;;;;;;7.30;6.70;;;3.90;97.20;;;;;;1661939;29;20223;-71
2022/11/27 06:51:28;;;;;;;7.50;6.90;;;3.90;97.20;;;;;;1661924;29;20697;-71
2022/11/27 06:52:20;;;;;;;7.15;6.55;;;3.90;97.20;;;;;;1661871;29;20203;-71
2022/11/27 06:53:10;;;;;;;7.28;6.68;;;3.90;97.20;;;;;;1661971;29;20580;-71
2022/11/27 06:54:03;;;;;;;7.10;6.50;;;3.90;97.20;;;;;;1661909;29;20639;-70
2022/11/27 06:54:53;;;;;;;7.72;7.05;;;4.00;97.20;;;;;;1662057;29;20686;-70
2022/11/27 06:55:45;;;;;;;7.10;6.50;;;4.00;97.20;;;;;;1661763;29;20669;-70
2022/11/27 06:56:36;;;;;;;7.45;6.25;;;3.90;97.20;;;;;;1661916;29;20211;-70
2022/11/27 06:57:27;;;;;;;6.47;5.87;;;4.00;97.20;;;;;;1661901;29;20211;-70
2022/11/27 06:58:19;;;;;;;7.43;6.82;;;4.00;97.20;;;;;;1661805;29;20216;-71
2022/11/27 06:59:13;;;;;;;7.00;5.93;;;4.00;97.20;;;;;;1661904;29;20241;-71
2022/11/27 07:00:05;;;;;;;6.65;5.95;;;4.00;97.20;;;;;;1662836;29;20208;-71
2022/11/27 07:00:58;;;;;;;8.85;6.70;;;4.00;97.20;;;;;;1665250;29;20215;-70
2022/11/27 07:01:49;;;;;;;8.88;6.38;;;4.00;97.20;;;;;;1669327;29;20207;-71
2022/11/27 07:02:42;;;;;;;7.43;6.80;;;4.00;97.20;;;;;;1669329;29;20287;-71
2022/11/27 07:03:33;;;;;;;7.40;6.70;;;4.00;97.20;;;;;;1669498;29;20673;-71
2022/11/27 07:04:24;;;;;;;7.07;6.37;;;4.00;97.20;;;;;;1669421;29;20691;-70
2022/11/27 07:05:15;;;;;;;8.70;7.20;;;4.00;97.20;;;;;;1669406;29;20447;-70
2022/11/27 07:06:09;;;;;;;6.67;6.10;;;4.00;97.20;;;;;;1669271;29;20198;-71
2022/11/27 07:07:00;;;;;;;7.20;6.50;;;4.00;97.20;;;;;;1669058;29;20906;-71
2022/11/27 07:07:52;;;;;;;7.50;6.80;;;4.00;97.20;;;;;;1669346;29;20577;-70
2022/11/27 07:08:43;;;;;;;8.15;6.65;;;4.00;97.20;;;;;;1668740;29;20978;-71
2022/11/27 07:09:35;;;;;;;7.30;6.55;;;4.00;97.20;;;;;;1669460;29;20289;-71
2022/11/27 07:10:26;;;;;;;10.05;7.40;;;4.00;97.20;;;;;;1669160;29;20218;-71
2022/11/27 07:11:20;;;;;;;8.10;7.30;;;4.00;97.20;;;;;;1669312;29;20213;-70
2022/11/27 07:12:10;;;;;;;10.20;9.15;;;4.00;97.20;;;;;;1669326;29;20206;-71
2022/11/27 07:13:02;;;;;;;10.23;9.23;;;4.00;97.20;;;;;;1669220;29;20295;-71
2022/11/27 07:13:56;;;;;;;11.23;8.50;;;4.00;97.20;;;;;;1669421;29;20210;-70
2022/11/27 07:14:48;;;;;;;10.43;8.60;;;4.10;97.20;;;;;;1666808;29;20215;-70
2022/11/27 07:15:39;;;;;;;8.85;8.05;;;4.10;97.20;;;;;;1662886;29;20211;-70
2022/11/27 07:16:33;;;;;;;9.03;8.13;;;4.10;97.20;;;;;;1662959;29;20211;-71
2022/11/27 07:17:23;;;;;;;11.55;7.63;;;4.10;97.20;;;;;;1662682;29;20207;-71
2022/11/27 07:18:16;;;;;;;8.97;8.07;;;4.20;97.20;;;;;;1663026;29;20218;-71
2022/11/27 07:19:07;;;;;;;9.43;8.50;;;4.20;97.20;;;;;;1662482;29;20282;-71
2022/11/27 07:19:59;;;;;;;8.50;7.70;;;4.20;97.20;;;;;;1662857;29;20219;-71
2022/11/27 07:20:50;;;;;;;9.20;8.40;;;4.20;97.20;;;;;;1662924;29;20472;-71
2022/11/27 07:21:42;;;;;;;8.70;7.90;;;4.20;97.20;;;;;;1662861;29;20211;-71
2022/11/27 07:22:33;;;;;;;9.05;8.15;;;4.30;97.20;;;;;;1662953;29;20218;-71
2022/11/27 07:23:24;;;;;;;8.97;8.17;;;4.20;97.20;;;;;;1662904;29;20676;-71
2022/11/27 07:24:15;;;;;;;8.82;8.05;;;4.20;97.20;;;;;;1663010;29;20211;-70
2022/11/27 07:25:07;;;;;;;8.47;7.67;;;4.30;97.20;;;;;;1662941;29;20211;-71
2022/11/27 07:26:03;;;;;;;8.63;7.38;;;4.20;97.20;;;;;;1662976;29;20889;-70
2022/11/27 07:26:55;;;;;;;8.23;7.47;;;4.30;97.20;;;;;;1662806;29;20587;-71
2022/11/27 07:27:46;;;;;;;8.77;8.00;;;4.30;97.20;;;;;;1662882;29;20214;-71
2022/11/27 07:28:38;;;;;;;8.57;7.87;;;4.30;97.20;;;;;;1662311;29;20210;-70
2022/11/27 07:29:28;;;;;;;8.38;7.55;;;4.30;97.20;;;;;;1662876;29;20511;-71
2022/11/27 07:30:20;;;;;;;8.57;7.77;;;4.30;97.20;;;;;;1662507;29;20218;-70
2022/11/27 07:31:13;;;;;;;8.90;8.00;;;4.30;97.20;;;;;;1657388;29;20220;-70
2022/11/27 07:32:04;;;;;;;9.48;8.65;;;4.30;97.20;;;;;;1662837;29;20211;-71
2022/11/27 07:32:55;;;;;;;9.07;7.38;;;4.30;97.20;;;;;;1662843;29;20215;-71
2022/11/27 07:33:50;;;;;;;8.67;7.37;;;4.30;97.20;;;;;;1662849;29;20215;-71
2022/11/27 07:34:41;;;;;;;8.18;7.43;;;4.30;97.20;;;;;;1662824;29;20708;-70
2022/11/27 07:35:33;;;;;;;7.90;7.20;;;4.40;97.20;;;;;;1662875;29;20586;-70
2022/11/27 07:36:25;;;;;;;8.65;7.82;;;4.40;97.20;;;;;;1662756;29;20689;-71
2022/11/27 07:37:17;;;;;;;7.75;7.13;;;4.40;97.20;;;;;;1662639;29;20222;-70
2022/11/27 07:38:08;;;;;;;8.48;7.78;;;4.40;97.20;;;;;;1662763;29;20211;-70
2022/11/27 07:38:59;;;;;;;8.77;7.83;;;4.40;97.20;;;;;;1662297;29;20207;-70
2022/11/27 07:39:50;;;;;;;8.00;7.30;;;4.40;97.20;;;;;;1662724;29;20749;-70
2022/11/27 07:40:42;;;;;;;8.43;7.30;;;4.40;97.20;;;;;;1662687;29;20743;-70
2022/11/27 07:41:32;;;;;;;8.80;8.00;;;4.40;97.20;;;;;;1662878;29;20211;-70
2022/11/27 07:42:24;;;;;;;8.30;7.50;;;4.40;97.20;;;;;;1662676;29;20211;-70
2022/11/27 07:43:15;;;;;;;9.25;8.35;;;4.40;97.20;;;;;;1662763;29;20218;-71
2022/11/27 07:44:06;;;;;;;8.93;8.20;;;4.40;97.20;;;;;;1662816;29;20209;-76
2022/11/27 07:44:57;;;;;;;8.40;7.70;;;4.40;97.20;;;;;;1662801;29;20214;-69
2022/11/27 07:45:49;;;;;;;9.67;8.77;;;4.40;97.20;;;;;;1662781;29;20210;-70
2022/11/27 07:46:41;;;;;;;10.88;9.88;;;4.40;97.20;;;;;;1662589;29;20211;-71
2022/11/27 07:47:31;;;;;;;11.98;10.95;;;4.40;97.20;;;;;;1662660;29;20579;-71
2022/11/27 07:48:23;;;;;;;11.20;10.10;;;4.40;97.20;;;;;;1662247;29;20583;-70
2022/11/27 07:49:15;;;;;;;10.80;9.90;;;4.40;97.20;;;;;;1662782;29;20238;-70
2022/11/27 07:50:08;;;;;;;9.85;8.95;;;4.40;97.20;;;;;;1662587;29;20275;-70
2022/11/27 07:50:59;;;;;;;11.75;9.40;;;4.40;97.20;;;;;;1662672;29;20741;-69
2022/11/27 07:51:51;;;;;;;8.80;8.10;;;4.40;97.20;;;;;;1662858;29;20752;-74
2022/11/27 07:52:42;;;;;;;10.15;9.18;;;4.40;97.20;;;;;;1662782;29;20215;-70
2022/11/27 07:53:37;;;;;;;9.70;8.87;;;4.50;97.20;;;;;;1662776;29;20215;-70
2022/11/27 07:54:28;;;;;;;9.73;8.93;;;4.50;97.20;;;;;;1662807;29;20298;-70
2022/11/27 07:55:19;;;;;;;9.60;8.70;;;4.50;97.20;;;;;;1662721;29;20203;-70
2022/11/27 07:56:12;;;;;;;10.05;9.13;;;4.40;97.20;;;;;;1662645;29;20231;-70
2022/11/27 07:57:04;;;;;;;9.70;8.90;;;4.40;97.20;;;;;;1662380;29;20254;-70
2022/11/27 07:57:54;;;;;;;9.65;8.85;;;4.40;97.20;;;;;;1662781;29;20214;-69
2022/11/27 07:58:47;;;;;;;9.53;8.63;;;4.50;97.20;;;;;;1661047;29;20211;-70
2022/11/27 07:59:37;;;;;;;9.88;8.95;;;4.50;97.20;;;;;;1662790;29;20600;-70
2022/11/27 08:00:29;;;;;;;8.10;7.40;;;4.60;97.20;;;;;;1662477;29;20211;-70
2022/11/27 08:01:21;;;;;;;8.50;7.70;;;4.60;97.20;;;;;;1662651;29;20211;-70
2022/11/27 08:02:13;;;;;;;8.48;7.68;;;4.60;97.20;;;;;;1662694;29;20487;-70
2022/11/27 08:03:04;;;;;;;8.73;7.97;;;4.70;97.20;;;;;;1662623;29;20234;-70
2022/11/27 08:03:56;;;;;;;8.70;7.87;;;4.70;97.20;;;;;;1662355;29;20196;-70
2022/11/27 08:04:48;;;;;;;8.65;7.95;;;4.70;97.20;;;;;;1662560;29;20214;-70
2022/11/27 08:05:39;;;;;;;8.48;7.65;;;4.70;97.20;;;;;;1662696;29;20207;-70
2022/11/27 08:06:30;;;;;;;8.68;7.82;;;4.80;97.20;;;;;;1662667;29;20210;-70
2022/11/27 08:07:27;;;;;;;10.60;9.67;;;4.80;97.20;;;;;;1662374;29;20666;-70
2022/11/27 08:08:17;;;;;;;12.60;11.30;;;4.80;97.20;;;;;;1660991;29;20222;-71
2022/11/27 08:09:09;;;;;;;10.30;9.40;;;4.80;97.20;;;;;;1662059;29;20674;-70
2022/11/27 08:10:00;;;;;;;9.80;8.90;;;4.90;97.20;;;;;;1662451;29;20215;-70
2022/11/27 08:10:52;;;;;;;10.37;9.43;;;4.90;97.20;;;;;;1661762;29;20232;-70
2022/11/27 08:11:42;;;;;;;9.43;8.63;;;5.00;97.20;;;;;;1662637;29;20463;-71
2022/11/27 08:12:34;;;;;;;9.10;7.90;;;5.00;97.20;;;;;;1662559;29;20684;-69
2022/11/27 08:13:25;;;;;;;9.98;8.98;;;5.10;97.20;;;;;;1662695;29;20211;-70
2022/11/27 08:14:18;;;;;;;9.57;8.70;;;5.20;97.20;;;;;;1662572;29;20226;-71
2022/11/27 08:15:09;;;;;;;10.52;9.15;;;5.20;97.20;;;;;;1662696;29;20211;-73
2022/11/27 08:16:01;;;;;;;10.90;9.43;;;5.30;97.20;;;;;;1662412;29;20203;-72
2022/11/27 08:16:52;;;;;;;11.30;10.00;;;5.40;97.20;;;;;;1662423;29;20219;-72
2022/11/27 08:17:43;;;;;;;10.57;9.67;;;5.60;97.20;;;;;;1662728;29;20207;-70
2022/11/27 08:18:34;;;;;;;9.98;9.10;;;5.60;97.20;;;;;;1662049;29;20214;-70
2022/11/27 08:19:26;;;;;;;9.70;8.90;;;5.70;97.20;;;;;;1662496;29;20213;-70
2022/11/27 08:20:18;;;;;;;11.38;10.18;;;5.80;97.20;;;;;;1662328;29;20211;-74
2022/11/27 08:21:10;;;;;;;9.43;8.52;;;5.90;97.20;;;;;;1662587;29;20207;-69
2022/11/27 08:22:01;;;;;;;10.65;9.18;;;5.90;97.20;;;;;;1662634;29;20214;-70
2022/11/27 08:22:52;;;;;;;8.17;7.40;;;6.00;97.20;;;;;;1662591;29;20214;-72
2022/11/27 08:23:43;;;;;;;7.97;7.25;;;6.00;97.20;;;;;;1662584;29;20211;-72
2022/11/27 08:24:37;;;;;;;8.30;7.60;;;6.10;97.20;;;;;;1662497;29;20207;-72
2022/11/27 08:25:28;;;;;;;8.60;7.75;;;6.10;97.20;;;;;;1662720;29;20212;-72
2022/11/27 08:26:20;;;;;;;8.43;7.10;;;6.20;97.20;;;;;;1662659;29;20199;-72
2022/11/27 08:27:11;;;;;;;10.18;7.35;;;6.30;97.20;;;;;;1662431;29;20211;-73
2022/11/27 08:28:03;;;;;;;7.30;6.60;;;6.40;97.20;;;;;;1662662;29;20211;-72
2022/11/27 08:28:54;;;;;;;7.05;6.32;;;6.40;97.20;;;;;;1661942;29;20453;-72
2022/11/27 08:29:47;;;;;;;7.18;6.53;;;6.50;97.20;;;;;;1662198;29;20203;-70
2022/11/27 08:30:38;;;;;;;6.82;6.13;;;6.60;97.20;;;;;;1662764;29;20254;-70
2022/11/27 08:31:30;;;;;;;7.53;6.70;;;6.70;97.20;;;;;;1668924;29;20236;-70
2022/11/27 08:32:20;;;;;;;6.80;6.20;;;6.80;97.20;;;;;;1668895;29;20219;-70
2022/11/27 08:33:12;;;;;;;7.00;6.30;;;6.90;97.20;;;;;;1668917;29;20211;-70
2022/11/27 08:34:03;;;;;;;6.63;6.05;;;7.00;97.20;;;;;;1668845;29;20332;-71
2022/11/27 08:34:55;;;;;;;7.17;6.47;;;7.10;97.20;;;;;;1667669;29;20275;-72
2022/11/27 08:35:48;;;;;;;8.05;6.28;;;7.20;97.20;;;;;;1668872;29;20219;-74
2022/11/27 08:36:40;;;;;;;7.85;7.15;;;7.40;97.20;;;;;;1668380;29;20329;-73
2022/11/27 08:37:31;;;;;;;6.78;6.10;;;7.50;97.20;;;;;;1668875;29;20217;-69
2022/11/27 08:38:23;;;;;;;6.10;5.60;;;7.60;97.20;;;;;;1668238;29;20266;-70
2022/11/27 08:39:14;;;;;;;6.35;5.75;;;7.70;97.20;;;;;;1668848;29;20274;-70
2022/11/27 08:40:07;;;;;;;6.50;5.83;;;7.70;97.20;;;;;;1668711;29;20210;-70
2022/11/27 08:41:00;;;;;;;6.13;5.63;;;7.90;97.20;;;;;;1668713;29;20222;-71
2022/11/27 08:41:52;;;;;;;6.18;5.68;;;8.00;97.20;;;;;;1668761;29;20216;-71
2022/11/27 08:42:43;;;;;;;7.07;6.38;;;8.00;97.20;;;;;;1668831;29;20215;-71
2022/11/27 08:43:35;;;;;;;10.97;7.00;;;8.10;97.20;;;;;;1668819;29;20220;-71
2022/11/27 08:44:26;;;;;;;7.68;6.90;;;8.20;97.20;;;;;;1668886;29;20218;-72
2022/11/27 08:45:18;;;;;;;12.10;9.53;;;8.20;97.20;;;;;;1667724;29;20217;-72
2022/11/27 08:46:09;;;;;;;11.93;8.38;;;8.30;97.20;;;;;;1674244;29;20250;-72
2022/11/27 08:47:01;;;;;;;15.35;10.65;;;8.40;97.20;;;;;;1674808;29;20210;-72
2022/11/27 08:47:51;;;;;;;8.45;7.65;;;8.40;97.20;;;;;;1675143;29;20699;-73
2022/11/27 08:48:43;;;;;;;8.20;6.70;;;8.50;97.20;;;;;;1674524;29;20934;-74
2022/11/27 08:49:34;;;;;;;9.35;7.35;;;8.60;97.20;;;;;;1675128;29;20216;-75
2022/11/27 08:50:26;;;;;;;9.37;8.47;;;8.60;97.20;;;;;;1674826;29;20208;-72
2022/11/27 08:51:18;;;;;;;10.60;9.60;;;8.70;97.20;;;;;;1675039;29;20213;-72
2022/11/27 08:52:11;;;;;;;10.82;9.73;;;8.80;97.20;;;;;;1675010;29;20627;-72
2022/11/27 08:53:01;;;;;;;13.38;11.60;;;8.80;97.20;;;;;;1675041;29;20209;-72
2022/11/27 08:53:53;;;;;;;17.00;12.70;;;8.90;97.20;;;;;;1675197;29;20213;-72
2022/11/27 08:54:44;;;;;;;13.50;10.68;;;8.90;97.20;;;;;;1675053;29;20213;-72
2022/11/27 08:55:36;;;;;;;12.17;10.00;;;9.00;97.20;;;;;;1675072;29;20206;-73
2022/11/27 08:56:26;;;;;;;11.15;8.60;;;9.00;97.20;;;;;;1674881;29;20229;-71
2022/11/27 08:57:18;;;;;;;8.47;6.80;;;9.10;97.20;;;;;;1674927;29;20213;-72
2022/11/27 08:58:09;;;;;;;11.15;9.82;;;9.20;97.20;;;;;;1674975;29;20226;-76
2022/11/27 08:59:01;;;;;;;10.57;9.48;;;9.30;97.20;;;;;;1674588;29;20605;-74
2022/11/27 08:59:52;;;;;;;11.20;8.43;;;9.30;97.20;;;;;;1675000;29;20597;-74
2022/11/27 09:00:43;;;;;;;8.97;8.10;;;9.40;97.20;;;;;;1674845;29;20590;-72
2022/11/27 09:01:34;;;;;;;9.20;8.25;;;9.50;97.20;;;;;;1674951;29;20216;-73
2022/11/27 09:02:26;;;;;;;9.87;7.70;;;9.60;97.20;;;;;;1674546;29;20198;-73
2022/11/27 09:03:16;;;;;;;8.75;7.75;;;9.70;97.20;;;;;;1675139;29;20214;-73
2022/11/27 09:04:08;;;;;;;9.37;7.77;;;9.80;97.20;;;;;;1674948;29;20214;-72
2022/11/27 09:05:01;;;;;;;8.70;7.65;;;9.80;97.20;;;;;;1675119;29;20201;-72
2022/11/27 09:05:53;;;;;;;7.38;6.47;;;9.80;97.20;;;;;;1674787;29;20213;-72
2022/11/27 09:06:46;;;;;;;6.50;5.90;;;9.90;97.20;;;;;;1674773;29;20614;-73
2022/11/27 09:07:39;;;;;;;6.90;6.03;;;9.90;97.20;;;;;;1675057;29;20214;-72
2022/11/27 09:08:30;;;;;;;5.50;5.00;;;9.90;97.20;;;;;;1674522;29;20220;-73
2022/11/27 09:09:22;;;;;;;5.27;4.33;;;9.90;97.20;;;;;;1675007;29;20213;-72
2022/11/27 09:10:13;;;;;;;5.28;4.10;;;9.90;97.20;;;;;;1674851;29;20274;-73
2022/11/27 09:11:06;;;;;;;6.80;5.03;;;9.80;97.20;;;;;;1674931;29;20271;-72
2022/11/27 09:11:56;;;;;;;4.82;4.00;;;9.80;97.20;;;;;;1675033;29;20221;-73
2022/11/27 09:12:49;;;;;;;5.77;4.10;;;9.70;97.20;;;;;;1674859;29;20209;-74
2022/11/27 09:13:40;;;;;;;4.90;4.50;;;9.70;97.20;;;;;;1674919;29;20210;-73
2022/11/27 09:14:32;;;;;;;6.55;4.93;;;9.60;97.20;;;;;;1674971;29;20202;-73
2022/11/27 09:15:22;;;;;;;5.63;4.35;;;9.50;97.20;;;;;;1674930;29;20702;-73
2022/11/27 09:16:16;;;;;;;5.30;4.80;;;9.50;97.20;;;;;;1674658;29;20587;-73
2022/11/27 09:17:07;;;;;;;5.00;4.60;;;9.50;97.20;;;;;;1674597;29;20221;-73
2022/11/27 09:17:59;;;;;;;5.40;4.80;;;9.50;97.20;;;;;;1674880;29;20726;-73
2022/11/27 09:18:51;;;;;;;5.32;4.40;;;9.50;97.20;;;;;;1674342;29;20217;-73
2022/11/27 09:19:42;;;;;;;8.27;4.95;;;9.50;97.20;;;;;;1679837;29;20197;-73
2022/11/27 09:20:33;;;;;;;4.82;4.32;;;9.50;97.20;;;;;;1681197;29;20237;-73
2022/11/27 09:21:27;;;;;;;4.57;3.97;;;9.50;97.20;;;;;;1681207;29;20209;-73
2022/11/27 09:22:19;;;;;;;5.25;4.75;;;9.50;97.20;;;;;;1681195;29;20858;-73
2022/11/27 09:23:11;;;;;;;5.05;4.55;;;9.50;97.20;;;;;;1681241;29;20213;-74
2022/11/27 09:24:02;;;;;;;5.65;4.40;;;9.50;97.20;;;;;;1681381;29;20209;-73
2022/11/27 09:24:53;;;;;;;5.10;4.47;;;9.60;97.20;;;;;;1681240;29;20205;-73
2022/11/27 09:25:44;;;;;;;5.57;4.70;;;9.60;97.20;;;;;;1681337;29;20845;-73
2022/11/27 09:26:36;;;;;;;5.33;4.23;;;9.60;97.20;;;;;;1681275;29;20556;-73
2022/11/27 09:27:26;;;;;;;5.03;4.53;;;9.50;97.20;;;;;;1681099;29;20219;-73
2022/11/27 09:28:18;;;;;;;5.93;4.70;;;9.40;97.20;;;;;;1681419;29;20253;-73
2022/11/27 09:29:10;;;;;;;5.53;4.63;;;9.30;97.20;;;;;;1680742;29;20446;-74
2022/11/27 09:30:01;;;;;;;6.82;5.10;;;9.20;97.20;;;;;;1681173;29;20213;-74
2022/11/27 09:30:55;;;;;;;4.87;4.30;;;9.10;97.20;;;;;;1678776;29;20734;-74
2022/11/27 09:31:46;;;;;;;7.82;4.63;;;9.00;97.20;;;;;;1674794;29;20214;-74
2022/11/27 09:32:38;;;;;;;5.00;4.60;;;9.00;97.20;;;;;;1672119;29;20664;-74
2022/11/27 09:33:30;;;;;;;5.85;4.65;;;9.00;97.20;;;;;;1668476;29;20747;-74
2022/11/27 09:34:22;;;;;;;4.20;3.80;;;8.90;97.20;;;;;;1668570;29;20326;-74
2022/11/27 09:35:13;;;;;;;4.75;4.35;;;8.90;97.20;;;;;;1668402;29;20217;-74
2022/11/27 09:36:06;;;;;;;5.50;4.28;;;8.90;97.20;;;;;;1668495;29;20228;-74
2022/11/27 09:36:56;;;;;;;4.95;3.80;;;8.90;97.20;;;;;;1668301;29;20978;-74
2022/11/27 09:37:49;;;;;;;4.57;4.17;;;8.90;97.20;;;;;;1668445;29;20638;-74
2022/11/27 09:38:41;;;;;;;4.70;4.20;;;8.90;97.20;;;;;;1667736;29;20210;-74
2022/11/27 09:39:33;;;;;;;4.65;4.25;;;9.00;97.20;;;;;;1668568;29;20285;-74
2022/11/27 09:40:24;;;;;;;4.90;4.10;;;9.00;97.20;;;;;;1668216;29;20593;-74
2022/11/27 09:41:35;;;;;;;4.93;4.03;;;9.00;97.20;;;;;;1668457;29;20210;-73
2022/11/27 09:42:37;;;;;;;5.82;3.92;;;9.00;97.20;;;;;;1668563;29;20482;-74
2022/11/27 09:43:33;;;;;;;4.75;4.22;;;9.00;97.20;;;;;;1668604;29;20699;-74
2022/11/27 09:44:32;;;;;;;4.30;3.90;;;9.00;97.20;;;;;;1668604;29;20210;-73
2022/11/27 09:45:25;;;;;;;5.47;4.30;;;9.00;97.20;;;;;;1668638;29;20207;-74
2022/11/27 09:46:25;;;;;;;4.35;3.80;;;9.00;97.20;;;;;;1668545;29;20637;-70
2022/11/27 09:47:22;;;;;;;4.70;4.30;;;9.00;97.20;;;;;;1668481;29;20566;-70
2022/11/27 09:48:22;;;;;;;4.38;3.97;;;9.00;97.20;;;;;;1668470;29;20221;-70
2022/11/27 09:49:18;;;;;;;7.15;4.55;;;9.10;97.20;;;;;;1668557;29;20195;-70
2022/11/27 09:50:15;;;;;;;4.93;4.30;;;9.10;97.20;;;;;;1667881;29;20195;-70
2022/11/27 09:51:13;;;;;;;6.00;4.90;;;9.20;97.20;;;;;;1668012;29;20207;-70
2022/11/27 09:52:09;;;;;;;4.93;4.32;;;9.20;97.20;;;;;;1668340;29;20934;-70
2022/11/27 09:53:12;;;;;;;5.15;4.10;;;9.20;97.20;;;;;;1668325;29;20221;-70
2022/11/27 09:54:09;;;;;;;6.55;4.13;;;9.30;97.20;;;;;;1668494;29;20199;-70
2022/11/27 09:55:03;;;;;;;5.80;4.32;;;9.30;97.20;;;;;;1668451;29;20207;-70
2022/11/27 09:55:57;;;;;;;4.28;3.72;;;9.40;97.20;;;;;;1668479;29;20209;-70
2022/11/27 09:56:51;;;;;;;5.18;4.45;;;9.40;97.20;;;;;;1668057;29;20577;-70
2022/11/27 09:57:52;;;;;;;5.13;4.25;;;9.50;97.20;;;;;;1668383;29;20211;-70
2022/11/27 09:58:47;;;;;;;5.05;4.43;;;9.50;97.20;;;;;;1673335;29;20263;-70
2022/11/27 09:59:43;;;;;;;7.05;4.63;;;9.60;97.20;;;;;;1674725;29;20233;-70
2022/11/27 10:00:34;;;;;;;5.85;5.13;;;9.70;97.20;;;;;;1674761;29;20234;-70
2022/11/27 10:01:28;;;;;;;4.73;4.27;;;9.70;97.20;;;;;;1674653;29;20216;-70
2022/11/27 10:02:25;;;;;;;5.40;4.78;;;9.80;97.20;;;;;;1674706;29;20907;-70
2022/11/27 10:03:20;;;;;;;5.65;5.00;;;9.90;97.20;;;;;;1674940;29;20193;-70
2022/11/27 10:04:13;;;;;;;5.80;5.20;;;10.00;97.20;;;;;;1662044;29;20199;-70
2022/11/27 10:05:16;;;;;;;7.47;5.22;;;10.10;97.20;;;;;;1662140;29;20203;-70
2022/11/27 10:06:20;;;;;;;6.35;5.28;;;10.20;97.20;;;;;;1662024;29;20227;-70
2022/11/27 10:07:26;;;;;;;8.90;5.22;;;10.30;97.20;;;;;;1664459;29;20305;-71
2022/11/27 10:08:29;;;;;;;5.55;5.05;;;10.30;97.20;;;;;;1662249;29;20196;-70
2022/11/27 10:09:29;;;;;;;5.88;5.30;;;10.40;97.20;;;;;;1666772;29;20210;-70
2022/11/27 10:10:34;;;;;;;7.18;4.43;;;10.50;97.20;;;;;;1668214;29;20210;-70
2022/11/27 10:11:31;;;;;;;5.68;4.60;;;10.60;97.20;;;;;;1668276;29;20218;-70
2022/11/27 10:12:30;;;;;;;5.65;4.90;;;10.80;97.20;;;;;;1668360;29;20692;-70
2022/11/27 10:13:37;;;;;;;5.63;4.22;;;11.00;97.20;;;;;;1668414;29;20199;-70
2022/11/27 10:14:40;;;;;;;5.68;4.50;;;11.20;97.20;;;;;;1668271;29;20589;-70
2022/11/27 10:15:38;;;;;;;5.28;4.53;;;11.50;97.20;;;;;;1668427;29;20631;-70
2022/11/27 10:16:36;;;;;;;8.95;5.95;;;11.70;97.20;;;;;;1668322;29;20210;-71
2022/11/27 10:17:33;;;;;;;6.25;5.60;;;11.90;97.20;;;;;;1666346;29;20191;-70
2022/11/27 10:18:33;;;;;;;5.60;5.10;;;12.00;97.20;;;;;;1667854;29;20217;-69
2022/11/27 10:19:34;;;;;;;5.60;5.10;;;12.10;97.20;;;;;;1668362;29;20191;-70
2022/11/27 10:20:30;;;;;;;5.65;5.15;;;12.20;97.20;;;;;;1668155;29;20199;-70
2022/11/27 10:21:29;;;;;;;5.25;4.78;;;12.30;97.20;;;;;;1668040;29;20207;-70
2022/11/27 10:22:26;;;;;;;4.65;4.20;;;12.30;97.20;;;;;;1665799;29;20662;-70
2022/11/27 10:23:25;;;;;;;5.35;4.70;;;12.40;97.20;;;;;;1668157;29;20282;-70
2022/11/27 10:24:22;;;;;;;5.47;4.78;;;12.50;97.20;;;;;;1668344;29;20199;-71
2022/11/27 10:25:19;;;;;;;5.40;4.82;;;12.60;97.20;;;;;;1668279;29;20627;-70
2022/11/27 10:26:16;;;;;;;5.75;5.15;;;12.60;97.20;;;;;;1668290;29;20603;-70
2022/11/27 10:27:17;;;;;;;5.78;4.85;;;12.60;97.20;;;;;;1668204;29;20202;-69
2022/11/27 10:28:25;;;;;;;5.95;5.05;;;12.70;97.20;;;;;;1662126;29;20765;-71
2022/11/27 10:29:31;;;;;;;7.93;4.60;;;12.70;97.20;;;;;;1661927;29;20226;-70
2022/11/27 10:30:21;;;;;;;5.32;4.93;;;12.70;97.20;;;;;;1661871;29;20361;-70
2022/11/27 10:31:18;;;;;;;6.13;5.47;;;12.70;97.20;;;;;;1666813;29;20222;-70
2022/11/27 10:32:13;;;;;;;5.78;4.90;;;12.80;97.20;;;;;;1668315;29;20221;-70
2022/11/27 10:33:15;;;;;;;6.93;6.00;;;12.90;97.20;;;;;;1668275;29;20217;-70
2022/11/27 10:34:19;;;;;;;6.50;5.75;;;13.00;97.20;;;;;;1668717;29;20191;-71
2022/11/27 10:35:14;;;;;;;6.78;6.00;;;13.20;97.20;;;;;;1669554;29;20214;-70
2022/11/27 10:36:09;;;;;;;6.38;5.78;;;13.30;97.20;;;;;;1669646;29;20210;-70
2022/11/27 10:37:06;;;;;;;6.57;5.97;;;13.50;97.20;;;;;;1669278;29;20620;-70
2022/11/27 10:38:00;;;;;;;7.22;5.93;;;13.60;97.20;;;;;;1669400;29;20221;-70
2022/11/27 10:38:55;;;;;;;5.57;5.07;;;13.80;97.20;;;;;;1669003;29;20207;-71